Time;durP1;ratioP1;P1;durP2;ratioP2;P2;SDS_P1;SDS_P2;PMS_P1;PMS_P2;Temp;Humidity;BMP_temperature;BMP_pressure;BME280_temperature;BME280_humidity;BME280_pressure;Samples;Min_cycle;Max_cycle;Signal;HPM_P1;HPM_P2
2022/11/09 00:01:49;0.00;0.00;0.62;0.00;0.00;0.62;2.43;1.73;;;26.30;26.00;;;;;;2239490;61;20389;-67
2022/11/09 00:04:34;0.00;0.00;0.62;0.00;0.00;0.62;1.90;1.47;;;26.30;26.00;;;;;;2240567;61;20761;-67
2022/11/09 00:07:18;0.00;0.00;0.62;0.00;0.00;0.62;3.90;2.10;;;26.30;25.90;;;;;;2240238;61;20757;-66
2022/11/09 00:10:04;0.00;0.00;0.62;0.00;0.00;0.62;2.73;1.70;;;26.30;26.00;;;;;;2240061;61;20349;-66
2022/11/09 00:12:50;0.00;0.00;0.62;0.00;0.00;0.62;3.40;1.47;;;26.20;25.90;;;;;;2240415;61;20409;-66
2022/11/09 00:15:35;0.00;0.00;0.62;0.00;0.00;0.62;3.20;1.57;;;26.20;25.90;;;;;;2239803;61;20389;-66
2022/11/09 00:18:20;0.00;0.00;0.62;0.00;0.00;0.62;2.60;1.33;;;26.20;26.00;;;;;;2240368;61;20822;-66
2022/11/09 00:21:06;0.00;0.00;0.62;0.00;0.00;0.62;1.77;1.30;;;26.20;26.00;;;;;;2239949;61;20774;-67
2022/11/09 00:23:52;0.00;0.00;0.62;0.00;0.00;0.62;2.20;1.70;;;26.20;26.00;;;;;;2267101;58;20381;-67
2022/11/09 00:26:36;0.00;0.00;0.62;0.00;0.00;0.62;2.00;1.40;;;26.10;25.90;;;;;;2240364;61;20409;-67
2022/11/09 00:29:22;0.00;0.00;0.62;0.00;0.00;0.62;3.90;1.67;;;26.10;26.00;;;;;;2240477;61;20954;-66
2022/11/09 00:32:07;0.00;0.00;0.62;0.00;0.00;0.62;2.57;1.40;;;26.10;26.00;;;;;;2239718;61;20591;-66
2022/11/09 00:34:51;0.00;0.00;0.62;0.00;0.00;0.62;2.43;1.60;;;26.00;25.90;;;;;;2240574;61;20372;-66
2022/11/09 00:37:36;0.00;0.00;0.62;0.00;0.00;0.62;2.00;1.40;;;26.00;26.50;;;;;;2240027;61;20389;-66
2022/11/09 00:40:20;0.00;0.00;0.62;0.00;0.00;0.62;3.03;1.80;;;26.00;26.00;;;;;;2240251;61;20382;-66
2022/11/09 00:43:05;0.00;0.00;0.62;0.00;0.00;0.62;2.33;1.73;;;26.00;26.00;;;;;;2239716;61;20488;-66
2022/11/09 00:45:50;0.00;0.00;0.62;0.00;0.00;0.62;3.30;1.60;;;26.00;26.00;;;;;;2239588;61;20369;-66
2022/11/09 00:48:35;0.00;0.00;0.62;0.00;0.00;0.62;3.83;1.60;;;26.00;26.10;;;;;;2240372;61;20865;-66
2022/11/09 00:51:20;0.00;0.00;0.62;0.00;0.00;0.62;2.13;1.47;;;26.00;26.10;;;;;;2239630;61;20469;-66
2022/11/09 00:54:06;0.00;0.00;0.62;0.00;0.00;0.62;3.37;1.60;;;26.00;26.10;;;;;;2239099;61;20366;-67
2022/11/09 00:56:52;0.00;0.00;0.62;0.00;0.00;0.62;2.50;1.60;;;25.90;26.60;;;;;;2240466;61;20429;-66
2022/11/09 00:59:36;0.00;0.00;0.62;0.00;0.00;0.62;2.40;1.73;;;25.90;26.10;;;;;;2239825;61;20940;-66
2022/11/09 01:02:23;0.00;0.00;0.62;0.00;0.00;0.62;2.30;1.77;;;25.90;26.10;;;;;;2239383;61;20446;-66
2022/11/09 01:05:07;0.00;0.00;0.62;0.00;0.00;0.62;2.37;1.47;;;25.90;26.60;;;;;;2240085;61;20874;-66
2022/11/09 01:07:52;0.00;0.00;0.62;0.00;0.00;0.62;2.57;1.80;;;25.90;26.00;;;;;;2239764;61;20447;-66
2022/11/09 01:10:41;0.00;0.00;0.62;0.00;0.00;0.62;2.10;1.50;;;25.80;25.90;;;;;;2240399;61;20382;-67
2022/11/09 01:13:25;0.00;0.00;0.62;0.00;0.00;0.62;2.20;1.77;;;25.80;26.00;;;;;;2240233;61;20437;-66
2022/11/09 01:16:12;0.00;0.00;0.62;0.00;0.00;0.62;2.60;1.50;;;25.80;26.50;;;;;;2239606;61;20393;-66
2022/11/09 01:18:59;0.00;0.00;0.62;0.00;0.00;0.62;2.60;1.70;;;25.80;26.00;;;;;;2241173;61;20373;-66
2022/11/09 01:21:43;0.00;0.00;0.62;0.00;0.00;0.62;2.67;1.70;;;25.70;26.00;;;;;;2239895;61;20394;-66
2022/11/09 01:24:28;0.00;0.00;0.62;0.00;0.00;0.62;1.60;1.30;;;25.70;26.00;;;;;;2363137;53;20910;-67
2022/11/09 01:27:13;0.00;0.00;0.62;0.00;0.00;0.62;2.30;1.90;;;25.70;26.00;;;;;;2240746;61;20768;-67
2022/11/09 01:29:57;0.00;0.00;0.62;0.00;0.00;0.62;2.27;1.70;;;25.70;26.00;;;;;;2239829;61;20961;-66
2022/11/09 01:32:42;0.00;0.00;0.62;0.00;0.00;0.62;1.73;1.37;;;25.70;26.00;;;;;;2241015;61;20405;-67
2022/11/09 01:35:28;0.00;0.00;0.62;0.00;0.00;0.62;2.20;1.70;;;25.60;26.00;;;;;;2240315;61;20441;-67
2022/11/09 01:38:13;0.00;0.00;0.62;0.00;0.00;0.62;3.20;1.90;;;25.60;26.00;;;;;;2240175;61;20424;-67
2022/11/09 01:40:57;0.00;0.00;0.62;0.00;0.00;0.62;2.37;1.70;;;25.60;26.00;;;;;;2240361;61;20779;-66
2022/11/09 01:43:43;0.00;0.00;0.62;0.00;0.00;0.62;2.40;1.57;;;25.60;26.10;;;;;;2239888;61;20794;-66
2022/11/09 01:46:33;0.00;0.00;0.62;0.00;0.00;0.62;2.13;1.67;;;25.50;26.00;;;;;;2240796;61;20397;-66
2022/11/09 01:49:36;0.00;0.00;0.62;0.00;0.00;0.62;2.00;1.50;;;25.50;26.10;;;;;;2240585;61;20413;-66
2022/11/09 01:52:29;0.00;0.00;0.62;0.00;0.00;0.62;3.80;1.90;;;25.50;26.10;;;;;;2240070;61;20405;-67
2022/11/09 01:55:18;0.00;0.00;0.62;0.00;0.00;0.62;5.23;1.73;;;25.50;26.10;;;;;;2240939;61;20454;-66
2022/11/09 01:58:07;0.00;0.00;0.62;0.00;0.00;0.62;2.43;1.70;;;25.40;26.10;;;;;;2240257;61;20361;-66
2022/11/09 02:00:55;0.00;0.00;0.62;0.00;0.00;0.62;3.10;1.60;;;25.40;26.10;;;;;;2240083;61;20905;-66
2022/11/09 02:03:45;0.00;0.00;0.62;0.00;0.00;0.62;2.83;1.60;;;25.40;26.10;;;;;;2243032;61;20402;-66
2022/11/09 02:06:31;0.00;0.00;0.62;0.00;0.00;0.62;1.73;1.40;;;25.40;26.20;;;;;;2239944;61;20441;-66
2022/11/09 02:09:25;0.00;0.00;0.62;0.00;0.00;0.62;2.63;1.67;;;25.40;26.20;;;;;;2240631;61;20505;-66
2022/11/09 02:12:10;0.00;0.00;0.62;0.00;0.00;0.62;2.23;1.63;;;25.40;26.20;;;;;;2240179;61;20418;-66
2022/11/09 02:14:56;0.00;0.00;0.62;0.00;0.00;0.62;2.50;1.80;;;25.30;26.20;;;;;;2239723;61;20369;-66
2022/11/09 02:17:42;0.00;0.00;0.62;0.00;0.00;0.62;2.00;1.37;;;25.30;26.20;;;;;;2240272;61;20812;-67
2022/11/09 02:20:29;0.00;0.00;0.62;0.00;0.00;0.62;1.90;1.57;;;25.30;26.80;;;;;;2240566;61;20409;-67
2022/11/09 02:23:16;0.00;0.00;0.62;0.00;0.00;0.62;2.07;1.40;;;25.30;26.20;;;;;;2239658;61;20972;-67
2022/11/09 02:26:08;0.00;0.00;0.62;0.00;0.00;0.62;2.83;1.70;;;25.30;26.20;;;;;;2240487;61;20409;-66
2022/11/09 02:28:54;0.00;0.00;0.62;0.00;0.00;0.62;2.47;1.30;;;25.30;26.20;;;;;;2239708;61;20372;-66
2022/11/09 02:31:45;0.00;0.00;0.62;0.00;0.00;0.62;2.33;1.37;;;25.30;26.20;;;;;;2240238;61;20421;-66
2022/11/09 02:34:31;0.00;0.00;0.62;0.00;0.00;0.62;2.10;1.70;;;25.20;26.20;;;;;;2240217;61;20888;-66
2022/11/09 02:37:28;0.00;0.00;0.62;0.00;0.00;0.62;2.50;1.40;;;25.20;26.20;;;;;;2239921;61;20429;-66
2022/11/09 02:40:20;0.00;0.00;0.62;0.00;0.00;0.62;2.20;1.50;;;25.20;26.30;;;;;;2240511;61;20948;-66
2022/11/09 02:43:08;0.00;0.00;0.62;0.00;0.00;0.62;1.93;1.40;;;25.20;26.30;;;;;;2239824;61;20385;-66
2022/11/09 02:45:53;0.00;0.00;0.62;0.00;0.00;0.62;2.10;1.50;;;25.20;26.30;;;;;;2240342;61;20520;-66
2022/11/09 02:48:38;0.00;0.00;0.62;0.00;0.00;0.62;2.03;1.53;;;25.20;26.30;;;;;;2240653;61;20404;-66
2022/11/09 02:51:22;0.00;0.00;0.62;0.00;0.00;0.62;1.97;1.60;;;25.20;26.30;;;;;;2239297;61;20794;-66
2022/11/09 02:54:08;0.00;0.00;0.62;0.00;0.00;0.62;2.87;1.40;;;25.20;26.30;;;;;;2240233;61;20354;-67
2022/11/09 02:56:54;0.00;0.00;0.62;0.00;0.00;0.62;1.93;1.57;;;25.20;26.30;;;;;;2240093;61;20393;-66
2022/11/09 02:59:39;0.00;0.00;0.62;0.00;0.00;0.62;1.87;1.30;;;25.20;26.40;;;;;;2242192;61;20373;-66
2022/11/09 03:02:24;0.00;0.00;0.62;0.00;0.00;0.62;1.80;1.47;;;25.20;26.40;;;;;;2240270;61;20389;-67
2022/11/09 03:05:10;0.00;0.00;0.62;0.00;0.00;0.62;2.50;1.70;;;25.20;26.40;;;;;;2240243;61;20417;-67
2022/11/09 03:08:01;0.00;0.00;0.62;0.00;0.00;0.62;2.40;1.80;;;25.20;26.50;;;;;;2240259;61;20365;-66
2022/11/09 03:10:49;0.00;0.00;0.62;0.00;0.00;0.62;2.10;1.50;;;25.10;26.40;;;;;;2239968;61;20373;-66
2022/11/09 03:13:33;0.00;0.00;0.62;0.00;0.00;0.62;2.50;1.53;;;25.20;26.50;;;;;;2239948;61;20433;-67
2022/11/09 03:16:18;0.00;0.00;0.62;0.00;0.00;0.62;2.50;1.60;;;25.20;26.60;;;;;;2240110;61;20437;-67
2022/11/09 03:19:03;0.00;0.00;0.62;0.00;0.00;0.62;2.30;1.73;;;25.20;26.50;;;;;;2240322;61;20855;-67
2022/11/09 03:21:48;0.00;0.00;0.62;0.00;0.00;0.62;2.90;1.27;;;25.20;26.50;;;;;;2239688;61;20473;-67
2022/11/09 03:24:33;0.00;0.00;0.62;0.00;0.00;0.62;2.57;1.87;;;25.20;26.50;;;;;;2240314;61;20385;-67
2022/11/09 03:27:20;0.00;0.00;0.62;0.00;0.00;0.62;4.30;1.83;;;25.20;26.60;;;;;;2240178;61;20914;-66
2022/11/09 03:30:09;0.00;0.00;0.62;0.00;0.00;0.62;1.90;1.40;;;25.20;26.60;;;;;;2239697;61;20418;-67
2022/11/09 03:32:59;0.00;0.00;0.62;0.00;0.00;0.62;2.20;1.43;;;25.20;26.60;;;;;;2237263;61;20440;-66
2022/11/09 03:35:45;0.00;0.00;0.62;0.00;0.00;0.62;2.63;1.60;;;25.20;26.60;;;;;;2239195;61;20465;-66
2022/11/09 03:38:34;0.00;0.00;0.62;0.00;0.00;0.62;2.73;1.40;;;25.20;26.50;;;;;;2240188;61;20425;-67
2022/11/09 03:41:18;0.00;0.00;0.62;0.00;0.00;0.62;2.20;1.57;;;25.20;26.50;;;;;;2239815;61;20390;-67
2022/11/09 03:44:05;0.00;0.00;0.62;0.00;0.00;0.62;2.00;1.50;;;25.20;26.50;;;;;;2239282;61;20389;-67
2022/11/09 03:46:50;0.00;0.00;0.62;0.00;0.00;0.62;2.47;1.60;;;25.20;26.60;;;;;;2240499;61;20932;-66
2022/11/09 03:49:35;0.00;0.00;0.62;0.00;0.00;0.62;2.13;1.23;;;25.20;27.10;;;;;;2239968;61;20910;-67
2022/11/09 03:52:20;0.00;0.00;0.62;0.00;0.00;0.62;1.90;1.60;;;25.20;26.60;;;;;;2239918;61;20924;-67
2022/11/09 03:55:06;0.00;0.00;0.62;0.00;0.00;0.62;1.80;1.40;;;25.20;26.60;;;;;;2240450;61;20368;-66
2022/11/09 03:57:51;0.00;0.00;0.62;0.00;0.00;0.62;7.40;1.80;;;25.20;26.60;;;;;;2239445;61;20397;-66
2022/11/09 04:00:37;0.00;0.00;0.62;0.00;0.00;0.62;1.97;1.43;;;25.20;26.60;;;;;;2240398;61;20836;-66
2022/11/09 04:03:21;0.00;0.00;0.62;0.00;0.00;0.62;2.60;2.00;;;25.20;26.60;;;;;;2240229;61;20365;-66
2022/11/09 04:06:06;0.00;0.00;0.62;0.00;0.00;0.62;2.00;1.40;;;25.20;26.50;;;;;;2239661;61;20433;-66
2022/11/09 04:08:51;0.00;0.00;0.62;0.00;0.00;0.62;2.00;1.40;;;25.20;26.60;;;;;;2240381;61;20420;-67
2022/11/09 04:11:37;0.00;0.00;0.62;0.00;0.00;0.62;2.47;1.60;;;25.20;26.50;;;;;;2240115;61;20468;-66
2022/11/09 04:14:21;0.00;0.00;0.62;0.00;0.00;0.62;2.47;1.70;;;25.20;26.50;;;;;;2240076;61;20370;-67
2022/11/09 04:17:07;0.00;0.00;0.62;0.00;0.00;0.62;2.03;1.40;;;25.20;26.60;;;;;;2240262;61;20840;-66
2022/11/09 04:19:52;0.00;0.00;0.62;0.00;0.00;0.62;1.93;1.57;;;25.20;26.60;;;;;;2239773;61;20370;-66
2022/11/09 04:22:37;0.00;0.00;0.62;0.00;0.00;0.62;3.17;1.57;;;25.20;27.10;;;;;;2240525;61;20389;-66
2022/11/09 04:25:21;0.00;0.00;0.62;0.00;0.00;0.62;2.13;1.13;;;25.20;26.50;;;;;;2239750;61;20405;-66
2022/11/09 04:28:10;0.00;0.00;0.62;0.00;0.00;0.62;2.33;1.30;;;25.20;26.60;;;;;;2239589;61;20368;-66
2022/11/09 04:31:00;0.00;0.00;0.62;0.00;0.00;0.62;2.47;1.30;;;25.20;26.60;;;;;;2240453;61;20445;-66
2022/11/09 04:33:49;0.00;0.00;0.62;0.00;0.00;0.62;2.50;1.60;;;25.20;26.60;;;;;;2240399;61;20405;-66
2022/11/09 04:36:33;0.00;0.00;0.62;0.00;0.00;0.62;2.93;1.57;;;25.20;26.60;;;;;;2240243;61;20394;-66
2022/11/09 04:39:18;0.00;0.00;0.62;0.00;0.00;0.62;3.57;1.50;;;25.10;26.50;;;;;;2240154;61;20421;-66
2022/11/09 04:42:03;0.00;0.00;0.62;0.00;0.00;0.62;1.80;1.33;;;25.10;26.50;;;;;;2239305;61;20389;-66
2022/11/09 04:44:48;0.00;0.00;0.62;0.00;0.00;0.62;1.70;1.30;;;25.10;26.60;;;;;;2240550;61;20881;-66
2022/11/09 04:47:32;0.00;0.00;0.62;0.00;0.00;0.62;1.80;1.20;;;25.10;26.60;;;;;;2240010;61;20429;-68
2022/11/09 04:50:19;0.00;0.00;0.62;0.00;0.00;0.62;3.20;1.30;;;25.10;26.60;;;;;;2240160;61;20373;-67
2022/11/09 04:53:12;0.00;0.00;0.62;0.00;0.00;0.62;2.13;1.30;;;25.10;26.60;;;;;;2240493;61;20389;-66
2022/11/09 04:55:58;0.00;0.00;0.62;0.00;0.00;0.62;2.20;1.30;;;25.10;26.70;;;;;;2240895;61;20949;-66
2022/11/09 04:58:42;0.00;0.00;0.62;0.00;0.00;0.62;2.13;1.57;;;25.10;26.70;;;;;;2240666;61;20365;-66
2022/11/09 05:01:27;0.00;0.00;0.62;0.00;0.00;0.62;1.83;1.20;;;25.00;26.60;;;;;;2240801;61;20429;-67
2022/11/09 05:04:11;0.00;0.00;0.62;0.00;0.00;0.62;1.73;1.00;;;25.00;26.60;;;;;;2240678;61;20365;-67
2022/11/09 05:06:57;0.00;0.00;0.62;0.00;0.00;0.62;2.70;1.60;;;25.00;27.20;;;;;;2241191;61;20417;-67
2022/11/09 05:09:42;0.00;0.00;0.62;0.00;0.00;0.62;1.83;1.23;;;25.00;26.70;;;;;;2240923;61;20866;-67
2022/11/09 05:12:26;0.00;0.00;0.62;0.00;0.00;0.62;2.63;1.37;;;25.00;26.80;;;;;;2240240;61;20912;-66
2022/11/09 05:15:11;0.00;0.00;0.62;0.00;0.00;0.62;2.23;1.37;;;25.00;26.80;;;;;;2240891;61;20417;-65
2022/11/09 05:17:56;0.00;0.00;0.62;0.00;0.00;0.62;2.60;1.30;;;25.00;26.80;;;;;;2240677;61;20428;-65
2022/11/09 05:20:41;0.00;0.00;0.62;0.00;0.00;0.62;1.90;1.40;;;24.90;26.80;;;;;;2240284;61;20501;-65
2022/11/09 05:26:32;0.00;0.00;0.62;0.00;0.00;0.62;2.33;1.70;;;24.90;26.90;;;;;;2240240;61;20819;-65
2022/11/09 05:29:17;0.00;0.00;0.62;0.00;0.00;0.62;2.37;1.40;;;24.90;27.00;;;;;;2241003;61;20372;-65
2022/11/09 05:32:03;0.00;0.00;0.62;0.00;0.00;0.62;2.70;1.40;;;24.90;27.00;;;;;;2240661;61;20440;-65
2022/11/09 05:34:48;0.00;0.00;0.62;0.00;0.00;0.62;2.20;1.27;;;24.90;27.00;;;;;;2240232;61;20908;-66
2022/11/09 05:37:32;0.00;0.00;0.62;0.00;0.00;0.62;2.47;1.40;;;24.80;27.00;;;;;;2240848;61;20392;-66
2022/11/09 05:40:19;0.00;0.00;0.62;0.00;0.00;0.62;3.20;1.50;;;24.80;27.10;;;;;;2240833;61;20440;-66
2022/11/09 05:43:04;0.00;0.00;0.62;0.00;0.00;0.62;2.47;1.70;;;24.80;27.10;;;;;;2240386;61;20393;-66
2022/11/09 05:45:49;0.00;0.00;0.62;0.00;0.00;0.62;2.23;1.20;;;24.80;27.20;;;;;;2240877;61;20413;-65
2022/11/09 05:48:33;0.00;0.00;0.62;0.00;0.00;0.62;2.33;1.40;;;24.70;27.10;;;;;;2240395;61;20369;-66
2022/11/09 05:51:18;0.00;0.00;0.62;0.00;0.00;0.62;2.13;1.40;;;24.70;27.20;;;;;;2240846;61;20389;-65
2022/11/09 05:54:03;0.00;0.00;0.62;0.00;0.00;0.62;1.97;1.23;;;24.70;27.20;;;;;;2240671;61;20881;-66
2022/11/09 05:56:49;0.00;0.00;0.62;0.00;0.00;0.62;2.23;1.30;;;24.70;27.20;;;;;;2240171;61;20954;-66
2022/11/09 05:59:34;0.00;0.00;0.62;0.00;0.00;0.62;2.37;1.70;;;24.70;27.30;;;;;;2240772;61;20422;-65
2022/11/09 06:02:18;0.00;0.00;0.62;0.00;0.00;0.62;2.57;1.60;;;24.70;27.30;;;;;;2240527;61;20409;-66
2022/11/09 06:05:03;0.00;0.00;0.62;0.00;0.00;0.62;2.10;1.30;;;24.70;27.40;;;;;;2240168;61;20510;-66
2022/11/09 06:07:48;0.00;0.00;0.62;0.00;0.00;0.62;3.20;1.43;;;24.60;27.30;;;;;;2240809;61;20937;-66
2022/11/09 06:10:33;0.00;0.00;0.62;0.00;0.00;0.62;2.40;1.23;;;24.60;27.40;;;;;;2240241;61;20437;-66
2022/11/09 06:13:19;0.00;0.00;0.62;0.00;0.00;0.62;2.80;1.60;;;24.60;27.40;;;;;;2240859;61;20453;-65
2022/11/09 06:16:06;0.00;0.00;0.62;0.00;0.00;0.62;2.10;1.37;;;24.60;27.50;;;;;;2240373;61;20374;-65
2022/11/09 06:18:51;0.00;0.00;0.62;0.00;0.00;0.62;2.10;1.50;;;24.60;27.50;;;;;;2239958;61;20418;-65
2022/11/09 06:21:35;0.00;0.00;0.62;0.00;0.00;0.62;2.37;1.73;;;24.60;27.60;;;;;;2240664;61;20529;-65
2022/11/09 06:24:20;0.00;0.00;0.62;0.00;0.00;0.62;2.60;1.73;;;24.50;27.60;;;;;;2240486;61;20482;-65
2022/11/09 06:27:05;0.00;0.00;0.62;0.00;0.00;0.62;2.10;1.50;;;24.50;27.60;;;;;;2239985;61;20460;-65
2022/11/09 06:29:51;0.00;0.00;0.62;0.00;0.00;0.62;2.57;1.60;;;24.50;27.60;;;;;;2240892;61;20790;-63
2022/11/09 06:32:35;0.00;0.00;0.62;0.00;0.00;0.62;4.10;1.93;;;24.50;27.70;;;;;;2240172;61;20389;-64
2022/11/09 06:35:20;0.00;0.00;0.62;0.00;0.00;0.62;3.43;1.77;;;24.50;27.80;;;;;;2240551;61;20393;-61
2022/11/09 06:38:04;0.00;0.00;0.62;0.00;0.00;0.62;3.13;1.53;;;24.50;27.90;;;;;;2240693;61;20404;-67
2022/11/09 06:40:50;0.00;0.00;0.62;0.00;0.00;0.62;2.37;1.70;;;24.40;27.80;;;;;;2239875;61;20369;-69
2022/11/09 06:43:35;0.00;0.00;0.62;0.00;0.00;0.62;2.70;1.40;;;24.40;27.90;;;;;;2240834;61;20945;-67
2022/11/09 06:46:21;0.00;0.00;0.62;0.00;0.00;0.62;3.20;1.63;;;24.40;28.00;;;;;;2240525;61;20370;-70
2022/11/09 06:49:07;0.00;0.00;0.62;0.00;0.00;0.62;3.10;1.77;;;24.40;28.00;;;;;;2240033;61;20877;-66
2022/11/09 06:51:51;0.00;0.00;0.62;0.00;0.00;0.62;3.20;1.60;;;24.40;28.10;;;;;;2240413;61;20436;-70
2022/11/09 06:54:36;0.00;0.00;0.62;0.00;0.00;0.62;2.70;2.00;;;24.30;28.10;;;;;;2239398;61;20913;-68
2022/11/09 06:57:21;0.00;0.00;0.62;0.00;0.00;0.62;3.60;1.40;;;24.30;28.20;;;;;;2240204;61;20377;-70
2022/11/09 07:00:07;0.00;0.00;0.62;0.00;0.00;0.62;2.93;1.50;;;24.30;28.20;;;;;;2240510;61;20357;-68
2022/11/09 07:02:53;0.00;0.00;0.62;0.00;0.00;0.62;2.53;1.60;;;24.30;28.30;;;;;;2239895;61;20397;-68
2022/11/09 07:05:38;0.00;0.00;0.62;0.00;0.00;0.62;2.30;1.63;;;24.30;28.40;;;;;;2240522;61;20365;-69
2022/11/09 07:08:23;0.00;0.00;0.62;0.00;0.00;0.62;5.33;2.00;;;24.30;28.40;;;;;;2240108;61;20373;-71
2022/11/09 07:11:11;0.00;0.00;0.62;0.00;0.00;0.62;2.87;1.83;;;24.30;28.90;;;;;;2239547;61;20373;-63
2022/11/09 07:13:55;0.00;0.00;0.62;0.00;0.00;0.62;4.37;2.10;;;24.30;28.50;;;;;;2240545;61;20369;-63
2022/11/09 07:16:40;0.00;0.00;0.62;0.00;0.00;0.62;3.80;1.70;;;24.30;28.50;;;;;;2240494;61;20394;-62
2022/11/09 07:19:27;0.00;0.00;0.62;0.00;0.00;0.62;3.23;2.87;;;24.30;28.50;;;;;;2239389;61;20381;-69
2022/11/09 07:22:12;0.00;0.00;0.62;0.00;0.00;0.62;4.40;2.23;;;24.30;28.50;;;;;;2239722;61;20433;-68
2022/11/09 07:24:56;0.00;0.00;0.62;0.00;0.00;0.62;5.30;2.07;;;24.30;28.50;;;;;;2239433;61;20433;-70
2022/11/09 07:27:41;0.00;0.00;0.62;0.00;0.00;0.62;10.47;2.50;;;24.30;28.60;;;;;;2240189;61;20882;-68
2022/11/09 07:30:26;0.00;0.00;0.62;0.00;0.00;0.62;3.17;2.43;;;24.30;28.60;;;;;;2240265;61;20389;-67
2022/11/09 07:33:14;0.00;0.00;0.62;0.00;0.00;0.62;4.67;2.20;;;24.30;28.60;;;;;;2239716;61;20521;-68
2022/11/09 07:36:02;0.00;0.00;0.62;0.00;0.00;0.62;2.67;2.03;;;24.30;28.70;;;;;;2240173;61;20398;-69
2022/11/09 07:38:47;0.00;0.00;0.62;0.00;0.00;0.62;3.63;1.93;;;24.30;28.70;;;;;;2240250;61;20378;-69
2022/11/09 07:41:32;0.00;0.00;0.62;0.00;0.00;0.62;3.07;1.97;;;24.30;28.70;;;;;;2239586;61;20815;-71
2022/11/09 07:44:17;0.00;0.00;0.62;0.00;0.00;0.62;4.00;2.27;;;24.30;28.70;;;;;;2240155;61;20393;-70
2022/11/09 07:47:02;0.00;0.00;0.62;0.00;0.00;0.62;2.73;2.30;;;24.30;28.70;;;;;;2239824;61;20369;-70
2022/11/09 07:49:46;0.00;0.00;0.62;0.00;0.00;0.62;4.07;3.00;;;24.30;28.80;;;;;;2240026;61;20350;-62
2022/11/09 07:52:33;0.00;0.00;0.62;0.00;0.00;0.62;6.07;2.30;;;24.30;28.80;;;;;;2239647;61;20782;-70
2022/11/09 07:55:17;0.00;0.00;0.62;0.00;0.00;0.62;3.67;2.27;;;24.30;28.80;;;;;;2239149;61;20373;-69
2022/11/09 07:58:04;0.00;0.00;0.62;0.00;0.00;0.62;5.20;3.57;;;24.30;28.80;;;;;;2240019;61;20485;-66
2022/11/09 08:00:49;0.00;0.00;0.62;0.00;0.00;0.62;4.00;2.70;;;24.30;28.80;;;;;;2240125;61;20377;-71
2022/11/09 08:03:34;0.00;0.00;0.62;0.00;0.00;0.62;4.70;3.30;;;24.30;28.80;;;;;;2239131;61;20424;-71
2022/11/09 08:06:19;0.00;0.00;0.62;0.00;0.00;0.62;7.30;3.87;;;24.30;28.80;;;;;;2240300;61;20381;-70
2022/11/09 08:09:05;0.00;0.00;0.62;0.00;0.00;0.62;8.13;3.60;;;24.30;29.40;;;;;;2239753;61;20949;-62
2022/11/09 08:11:50;0.00;0.00;0.62;0.00;0.00;0.62;4.53;3.10;;;24.30;28.90;;;;;;2239965;61;20417;-70
2022/11/09 08:14:35;0.00;0.00;0.62;0.00;0.00;0.62;5.13;3.50;;;24.30;28.90;;;;;;2240043;61;20938;-67
2022/11/09 08:17:20;0.00;0.00;0.62;0.00;0.00;0.62;3.43;2.43;;;24.40;28.90;;;;;;2239667;61;20374;-68
2022/11/09 08:20:06;0.00;0.00;0.62;0.00;0.00;0.62;3.30;2.40;;;24.40;29.40;;;;;;2240215;61;20409;-69
2022/11/09 08:22:50;0.00;0.00;0.62;0.00;0.00;0.62;5.67;2.07;;;24.40;28.80;;;;;;2514894;46;20913;-63
2022/11/09 08:25:36;0.00;0.00;0.62;0.00;0.00;0.62;3.70;2.47;;;24.40;28.70;;;;;;2239410;61;20384;-64
2022/11/09 08:28:21;0.00;0.00;0.62;0.00;0.00;0.62;3.03;2.00;;;24.50;28.70;;;;;;2240145;61;20350;-69
2022/11/09 08:31:07;0.00;0.00;0.62;0.00;0.00;0.62;3.33;2.20;;;24.50;28.60;;;;;;2238226;61;20389;-63
2022/11/09 08:33:52;0.00;0.00;0.62;0.00;0.00;0.62;3.60;2.20;;;24.60;28.60;;;;;;2239514;61;20377;-64
2022/11/09 08:36:37;0.00;0.00;0.62;0.00;0.00;0.62;2.43;2.20;;;24.60;28.50;;;;;;2240204;61;20949;-71
2022/11/09 08:39:22;0.00;0.00;0.62;0.00;0.00;0.62;2.93;2.00;;;24.60;28.50;;;;;;2239292;61;20372;-70
2022/11/09 08:42:08;0.00;0.00;0.62;0.00;0.00;0.62;4.77;2.50;;;24.70;28.50;;;;;;2239682;61;20782;-68
2022/11/09 08:44:53;0.00;0.00;0.62;0.00;0.00;0.62;3.10;2.10;;;24.70;28.50;;;;;;2240321;61;20369;-64
2022/11/09 08:47:38;0.00;0.00;0.62;0.00;0.00;0.62;2.27;2.07;;;24.70;28.40;;;;;;2240042;61;20365;-71
2022/11/09 08:50:23;0.00;0.00;0.62;0.00;0.00;0.62;3.30;1.77;;;24.80;28.50;;;;;;2239947;61;20388;-64
2022/11/09 08:53:08;0.00;0.00;0.62;0.00;0.00;0.62;2.00;1.70;;;24.80;28.40;;;;;;2240390;61;20389;-69
2022/11/09 08:55:53;0.00;0.00;0.62;0.00;0.00;0.62;2.73;1.67;;;24.80;28.40;;;;;;2239296;61;20454;-71
2022/11/09 08:58:39;0.00;0.00;0.62;0.00;0.00;0.62;6.00;1.93;;;24.90;28.40;;;;;;2240148;61;20397;-69
2022/11/09 09:01:24;0.00;0.00;0.62;0.00;0.00;0.62;2.50;1.67;;;24.90;28.40;;;;;;2239748;61;20917;-62
2022/11/09 09:04:08;0.00;0.00;0.62;0.00;0.00;0.62;2.63;2.00;;;24.90;28.40;;;;;;2240306;61;20369;-71
2022/11/09 09:06:53;0.00;0.00;0.62;0.00;0.00;0.62;2.20;1.43;;;24.90;28.40;;;;;;2240154;61;20858;-67
2022/11/09 09:09:38;0.00;0.00;0.62;0.00;0.00;0.62;2.70;1.83;;;25.00;28.40;;;;;;2240044;61;20370;-72
2022/11/09 09:12:23;0.00;0.00;0.62;0.00;0.00;0.62;2.13;1.60;;;25.00;28.40;;;;;;2237853;61;20799;-64
2022/11/09 09:15:09;0.00;0.00;0.62;0.00;0.00;0.62;2.00;1.47;;;25.00;28.40;;;;;;2239813;61;20517;-64
2022/11/09 09:17:54;0.00;0.00;0.62;0.00;0.00;0.62;2.40;1.53;;;25.00;28.30;;;;;;2239702;61;21207;-73
2022/11/09 09:20:39;0.00;0.00;0.62;0.00;0.00;0.62;1.50;1.00;;;25.00;28.30;;;;;;2240134;61;20409;-69
2022/11/09 09:23:24;0.00;0.00;0.62;0.00;0.00;0.62;2.37;1.50;;;25.10;28.90;;;;;;2239293;61;20425;-73
2022/11/09 09:26:09;0.00;0.00;0.62;0.00;0.00;0.62;2.33;1.50;;;25.10;28.30;;;;;;2239739;61;20365;-70
2022/11/09 09:28:53;0.00;0.00;0.62;0.00;0.00;0.62;2.03;1.27;;;25.10;28.30;;;;;;2239863;61;20381;-69
2022/11/09 09:31:39;0.00;0.00;0.62;0.00;0.00;0.62;2.20;1.23;;;25.20;28.40;;;;;;2239355;61;20421;-68
2022/11/09 09:34:24;0.00;0.00;0.62;0.00;0.00;0.62;2.70;1.30;;;25.20;28.30;;;;;;2239794;61;20950;-69
2022/11/09 09:37:10;0.00;0.00;0.62;0.00;0.00;0.62;1.97;1.43;;;25.20;28.30;;;;;;2240339;61;20385;-70
2022/11/09 09:39:55;0.00;0.00;0.62;0.00;0.00;0.62;2.60;2.00;;;25.20;28.30;;;;;;2239909;61;20787;-70
2022/11/09 09:42:43;0.00;0.00;0.62;0.00;0.00;0.62;1.90;1.40;;;25.20;28.30;;;;;;2751542;46;20448;-70
2022/11/09 09:45:31;0.00;0.00;0.62;0.00;0.00;0.62;2.13;1.33;;;25.20;28.30;;;;;;2240261;61;20362;-73
2022/11/09 09:48:27;0.00;0.00;0.62;0.00;0.00;0.62;1.80;1.30;;;25.30;28.30;;;;;;2240336;61;20362;-68
2022/11/09 09:51:21;0.00;0.00;0.62;0.00;0.00;0.62;3.10;1.40;;;25.20;28.30;;;;;;2240425;61;20428;-70
2022/11/09 09:54:15;0.00;0.00;0.62;0.00;0.00;0.62;2.10;1.27;;;25.30;28.30;;;;;;2240243;61;20365;-66
2022/11/09 09:57:01;0.00;0.00;0.62;0.00;0.00;0.62;2.17;1.43;;;25.30;28.30;;;;;;2240088;61;20495;-70
2022/11/09 09:59:49;0.00;0.00;0.62;0.00;0.00;0.62;2.03;1.20;;;25.30;28.20;;;;;;2240807;61;20449;-71
2022/11/09 10:02:35;0.00;0.00;0.62;0.00;0.00;0.62;2.30;1.40;;;25.40;28.30;;;;;;2240153;61;20434;-69
2022/11/09 10:05:31;0.00;0.00;0.62;0.00;0.00;0.62;1.70;1.20;;;25.40;28.30;;;;;;2240419;61;20425;-65
2022/11/09 10:08:28;0.00;0.00;0.62;0.00;0.00;0.62;2.20;1.40;;;25.40;28.30;;;;;;2239945;61;20378;-61
2022/11/09 10:11:27;0.00;0.00;0.62;0.00;0.00;0.62;2.70;1.97;;;25.40;28.30;;;;;;2239541;61;20401;-63
2022/11/09 10:14:54;0.00;0.00;0.62;0.00;0.00;0.62;2.60;1.83;;;25.40;28.20;;;;;;2240285;61;20416;-69
2022/11/09 10:17:50;0.00;0.00;0.62;0.00;0.00;0.62;2.53;1.87;;;25.50;28.20;;;;;;2236093;62;20430;-68
2022/11/09 10:20:52;0.00;0.00;0.62;0.00;0.00;0.62;2.60;1.67;;;25.50;28.30;;;;;;2239385;61;20462;-62
2022/11/09 10:23:47;0.00;0.00;0.62;0.00;0.00;0.62;2.70;1.80;;;25.50;28.20;;;;;;2240150;61;20381;-61
2022/11/09 10:26:41;0.00;0.00;0.62;0.00;0.00;0.62;2.90;1.70;;;25.50;28.10;;;;;;2240067;61;20877;-69
2022/11/09 10:29:33;0.00;0.00;0.62;0.00;0.00;0.62;3.10;2.10;;;25.50;28.20;;;;;;2240470;61;20369;-66
2022/11/09 10:32:21;0.00;0.00;0.62;0.00;0.00;0.62;1.97;1.67;;;25.60;28.20;;;;;;2239432;61;20388;-61
2022/11/09 10:35:15;0.00;0.00;0.62;0.00;0.00;0.62;2.20;1.50;;;25.60;28.20;;;;;;2240437;61;20373;-70
2022/11/09 10:38:02;0.00;0.00;0.62;0.00;0.00;0.62;2.43;1.60;;;25.60;28.20;;;;;;2239807;61;20852;-68
2022/11/09 10:40:53;0.00;0.00;0.62;0.00;0.00;0.62;2.17;1.73;;;25.60;28.20;;;;;;2239905;61;20373;-70
2022/11/09 10:43:56;0.00;0.00;0.62;0.00;0.00;0.62;1.70;1.30;;;25.60;28.20;;;;;;2240393;61;20361;-61
2022/11/09 10:47:07;0.00;0.00;0.62;0.00;0.00;0.62;1.70;1.30;;;25.60;28.20;;;;;;2239309;61;20893;-62
2022/11/09 10:50:23;0.00;0.00;0.62;0.00;0.00;0.62;2.47;1.60;;;25.70;28.20;;;;;;2240472;61;20369;-62
2022/11/09 10:53:31;0.00;0.00;0.62;0.00;0.00;0.62;2.30;1.50;;;25.70;28.20;;;;;;2467006;54;20496;-68
2022/11/09 10:56:43;0.00;0.00;0.62;0.00;0.00;0.62;2.30;1.57;;;25.70;28.20;;;;;;2236276;62;20422;-65
2022/11/09 10:59:50;0.00;0.00;0.62;0.00;0.00;0.62;2.80;1.80;;;25.70;28.30;;;;;;2235786;62;20370;-64
2022/11/09 11:02:55;0.00;0.00;0.62;0.00;0.00;0.62;2.27;1.63;;;25.70;28.30;;;;;;2236041;61;20837;-72